Accueil
METAR-TAF:

METAR-TAF

Aéroports :

Pyongyang, Corée du Nord

Aéroport international de Sunan

latitude: 39-02N, longitude: 125-47E, altitude: 36 m

METAR: absent

Heure: 23:55 (15:25 UTC)

Prévision

Le bulletin a été fait il y a 10 heures et 25 minutes, à 05:00 UTC
Prévision valable du 19 à 06 UTC au 20 à 06 UTC
Vent 12 kt de sud/sud-ouest
Visibilité 10 km ou plus
Ciel couvert à une hauteur de 1700 ft
Temporairement
du 19 à 06 UTC au 19 à 12 UTC
Vent 10 kt de sud/sud-ouest avec des rafales jusqu'à 19 kt
Visibilité: 2000 m
Nuages fragmentés à une hauteur de 1300 ft
Nuages épars à une hauteur de 2000 ft, Cumulonimbus.
averses de pluie
Evoluant progressivement
du 19 à 10 UTC au 19 à 12 UTC
Vent 12 kt de ouest/nord-ouest
Visibilité 10 km ou plus
Nuages épars à une hauteur de 2000 ft

TAF: ZKPY 190500Z 1906/2006 20006MPS 9999 OVC017 TEMPO 1906/1912 20005G10MPS 2000 SHRA BKN013 SCT020CB BECMG 1910/1912 30006MPS 9999 SCT020

Observations et prévisions météorologiques de plus de 4000 aéroports (messages METAR et TAF).

Les stations disponibles sont représentées par des disques jaunes et rouges sur la carte.

Passer la souris dessus pour voir le nom de la station.

Cliquer dessus pour voir les observations et prévisions météorologiques.

Pour changer de carte: cliquez sur les boutons verts avec une croix noire pour zoomer, sur le bouton vert avec un tiret pour effectuer un zoom arrière, ou sur les flèches vertes pour les cartes adjacentes.


METAR-TAF: